sensor_id;sensor_type;location;lat;lon;timestamp;temperature;humidity
58983;DHT22;44771;49.982;8.560;2023-09-07T00:02:59;14.00;99.90
58983;DHT22;44771;49.982;8.560;2023-09-07T00:08:03;13.80;99.90
58983;DHT22;44771;49.982;8.560;2023-09-07T00:18:50;13.90;99.90
58983;DHT22;44771;49.982;8.560;2023-09-07T00:23:53;14.00;99.90
58983;DHT22;44771;49.982;8.560;2023-09-07T00:28:55;14.30;99.90
58983;DHT22;44771;49.982;8.560;2023-09-07T00:33:56;14.30;99.90
58983;DHT22;44771;49.982;8.560;2023-09-07T00:39:00;14.00;99.90
58983;DHT22;44771;49.982;8.560;2023-09-07T00:44:01;13.80;99.90
58983;DHT22;44771;49.982;8.560;2023-09-07T00:49:03;13.80;99.90
58983;DHT22;44771;49.982;8.560;2023-09-07T00:54:07;13.50;99.90
58983;DHT22;44771;49.982;8.560;2023-09-07T00:59:09;13.40;99.90
58983;DHT22;44771;49.982;8.560;2023-09-07T01:04:13;13.30;99.90
58983;DHT22;44771;49.982;8.560;2023-09-07T01:09:19;13.20;99.90
58983;DHT22;44771;49.982;8.560;2023-09-07T01:14:21;13.20;99.90
58983;DHT22;44771;49.982;8.560;2023-09-07T01:19:23;13.30;99.90
58983;DHT22;44771;49.982;8.560;2023-09-07T01:24:27;13.30;99.90
58983;DHT22;44771;49.982;8.560;2023-09-07T01:29:29;13.30;99.90
58983;DHT22;44771;49.982;8.560;2023-09-07T01:34:31;13.30;99.90
58983;DHT22;44771;49.982;8.560;2023-09-07T01:39:34;13.50;99.90
58983;DHT22;44771;49.982;8.560;2023-09-07T01:44:36;13.70;99.90
58983;DHT22;44771;49.982;8.560;2023-09-07T01:49:38;13.60;99.90
58983;DHT22;44771;49.982;8.560;2023-09-07T01:54:41;13.80;99.90
58983;DHT22;44771;49.982;8.560;2023-09-07T01:59:43;13.70;99.90
58983;DHT22;44771;49.982;8.560;2023-09-07T02:04:45;13.60;99.90
58983;DHT22;44771;49.982;8.560;2023-09-07T02:09:48;13.50;99.90
58983;DHT22;44771;49.982;8.560;2023-09-07T02:14:50;13.40;99.90
58983;DHT22;44771;49.982;8.560;2023-09-07T02:19:51;13.40;99.90
58983;DHT22;44771;49.982;8.560;2023-09-07T02:24:54;13.20;99.90
58983;DHT22;44771;49.982;8.560;2023-09-07T02:29:56;13.20;99.90
58983;DHT22;44771;49.982;8.560;2023-09-07T02:34:58;13.40;99.90
58983;DHT22;44771;49.982;8.560;2023-09-07T02:40:05;13.60;99.90
58983;DHT22;44771;49.982;8.560;2023-09-07T02:45:09;13.60;99.90
58983;DHT22;44771;49.982;8.560;2023-09-07T02:50:12;13.50;99.90
58983;DHT22;44771;49.982;8.560;2023-09-07T02:55:16;13.60;99.90
58983;DHT22;44771;49.982;8.560;2023-09-07T03:00:17;13.60;99.90
58983;DHT22;44771;49.982;8.560;2023-09-07T03:05:19;13.70;99.90
58983;DHT22;44771;49.982;8.560;2023-09-07T03:10:22;13.70;99.90
58983;DHT22;44771;49.982;8.560;2023-09-07T03:15:24;13.70;99.90
58983;DHT22;44771;49.982;8.560;2023-09-07T03:20:26;13.70;99.90
58983;DHT22;44771;49.982;8.560;2023-09-07T03:25:30;13.80;99.90
58983;DHT22;44771;49.982;8.560;2023-09-07T03:30:32;13.90;99.90
58983;DHT22;44771;49.982;8.560;2023-09-07T03:35:34;13.80;99.90
58983;DHT22;44771;49.982;8.560;2023-09-07T03:40:37;13.80;99.90
58983;DHT22;44771;49.982;8.560;2023-09-07T03:45:39;13.80;99.90
58983;DHT22;44771;49.982;8.560;2023-09-07T03:50:40;13.80;99.90
58983;DHT22;44771;49.982;8.560;2023-09-07T03:55:44;13.90;99.90
58983;DHT22;44771;49.982;8.560;2023-09-07T04:00:46;13.90;99.90
58983;DHT22;44771;49.982;8.560;2023-09-07T04:05:50;13.90;99.90
58983;DHT22;44771;49.982;8.560;2023-09-07T04:10:53;14.10;99.90
58983;DHT22;44771;49.982;8.560;2023-09-07T04:15:55;14.20;99.90
58983;DHT22;44771;49.982;8.560;2023-09-07T04:21:04;14.20;99.90
58983;DHT22;44771;49.982;8.560;2023-09-07T04:26:08;14.20;99.90
58983;DHT22;44771;49.982;8.560;2023-09-07T04:31:10;14.20;99.90
58983;DHT22;44771;49.982;8.560;2023-09-07T04:36:13;14.10;99.90
58983;DHT22;44771;49.982;8.560;2023-09-07T04:41:16;14.10;99.90
58983;DHT22;44771;49.982;8.560;2023-09-07T04:46:21;14.00;99.90
58983;DHT22;44771;49.982;8.560;2023-09-07T04:51:23;14.00;99.90
58983;DHT22;44771;49.982;8.560;2023-09-07T04:56:26;14.00;99.90
58983;DHT22;44771;49.982;8.560;2023-09-07T05:01:28;14.00;99.90
58983;DHT22;44771;49.982;8.560;2023-09-07T05:06:34;14.00;99.90
58983;DHT22;44771;49.982;8.560;2023-09-07T05:11:38;14.10;99.90
58983;DHT22;44771;49.982;8.560;2023-09-07T05:16:42;14.20;99.90
58983;DHT22;44771;49.982;8.560;2023-09-07T05:21:44;14.30;99.90
58983;DHT22;44771;49.982;8.560;2023-09-07T05:26:47;14.40;99.90
58983;DHT22;44771;49.982;8.560;2023-09-07T05:31:53;14.40;99.90
58983;DHT22;44771;49.982;8.560;2023-09-07T05:36:55;14.50;99.90
58983;DHT22;44771;49.982;8.560;2023-09-07T05:41:58;14.70;99.90
58983;DHT22;44771;49.982;8.560;2023-09-07T05:47:00;14.90;99.90
58983;DHT22;44771;49.982;8.560;2023-09-07T05:52:02;15.10;99.90
58983;DHT22;44771;49.982;8.560;2023-09-07T05:57:06;15.30;99.90
58983;DHT22;44771;49.982;8.560;2023-09-07T06:02:07;15.50;99.90
58983;DHT22;44771;49.982;8.560;2023-09-07T06:07:09;15.50;99.90
58983;DHT22;44771;49.982;8.560;2023-09-07T06:12:12;15.60;99.90
58983;DHT22;44771;49.982;8.560;2023-09-07T06:17:14;15.80;99.90
58983;DHT22;44771;49.982;8.560;2023-09-07T06:22:16;16.00;99.90
58983;DHT22;44771;49.982;8.560;2023-09-07T06:27:19;16.10;99.90
58983;DHT22;44771;49.982;8.560;2023-09-07T06:32:21;16.20;99.90
58983;DHT22;44771;49.982;8.560;2023-09-07T06:37:23;16.30;99.90
58983;DHT22;44771;49.982;8.560;2023-09-07T06:42:26;16.40;99.90
58983;DHT22;44771;49.982;8.560;2023-09-07T06:47:28;16.60;99.90
58983;DHT22;44771;49.982;8.560;2023-09-07T06:52:32;16.80;99.90
58983;DHT22;44771;49.982;8.560;2023-09-07T06:57:35;16.90;99.90
58983;DHT22;44771;49.982;8.560;2023-09-07T07:02:37;17.10;99.90
58983;DHT22;44771;49.982;8.560;2023-09-07T07:07:39;17.30;99.90
58983;DHT22;44771;49.982;8.560;2023-09-07T07:12:42;17.50;99.90
58983;DHT22;44771;49.982;8.560;2023-09-07T07:17:43;17.70;99.90
58983;DHT22;44771;49.982;8.560;2023-09-07T07:22:48;17.90;99.90
58983;DHT22;44771;49.982;8.560;2023-09-07T07:27:51;18.20;99.90
58983;DHT22;44771;49.982;8.560;2023-09-07T07:32:53;18.60;99.90
58983;DHT22;44771;49.982;8.560;2023-09-07T07:37:55;18.70;99.90
58983;DHT22;44771;49.982;8.560;2023-09-07T07:42:58;18.90;99.90
58983;DHT22;44771;49.982;8.560;2023-09-07T07:48:00;19.20;99.90
58983;DHT22;44771;49.982;8.560;2023-09-07T07:53:02;19.60;99.90
58983;DHT22;44771;49.982;8.560;2023-09-07T07:58:06;19.70;99.90
58983;DHT22;44771;49.982;8.560;2023-09-07T08:03:11;19.80;99.90
58983;DHT22;44771;49.982;8.560;2023-09-07T08:08:13;20.10;99.90
58983;DHT22;44771;49.982;8.560;2023-09-07T08:13:16;20.40;99.90
58983;DHT22;44771;49.982;8.560;2023-09-07T08:18:18;20.70;99.90
58983;DHT22;44771;49.982;8.560;2023-09-07T08:23:20;21.00;99.90
58983;DHT22;44771;49.982;8.560;2023-09-07T08:28:24;21.30;99.90
58983;DHT22;44771;49.982;8.560;2023-09-07T08:33:25;21.50;99.30
58983;DHT22;44771;49.982;8.560;2023-09-07T08:38:28;21.80;99.30
58983;DHT22;44771;49.982;8.560;2023-09-07T08:43:33;21.90;98.00
58983;DHT22;44771;49.982;8.560;2023-09-07T08:48:36;22.20;98.10
58983;DHT22;44771;49.982;8.560;2023-09-07T08:53:39;22.50;96.60
58983;DHT22;44771;49.982;8.560;2023-09-07T08:58:42;22.60;94.80
58983;DHT22;44771;49.982;8.560;2023-09-07T09:03:45;22.90;96.30
58983;DHT22;44771;49.982;8.560;2023-09-07T09:08:49;23.10;93.80
58983;DHT22;44771;49.982;8.560;2023-09-07T09:13:53;23.50;94.10
58983;DHT22;44771;49.982;8.560;2023-09-07T09:18:56;23.70;93.30
58983;DHT22;44771;49.982;8.560;2023-09-07T09:23:58;23.90;93.20
58983;DHT22;44771;49.982;8.560;2023-09-07T09:29:01;24.10;92.30
58983;DHT22;44771;49.982;8.560;2023-09-07T09:34:03;24.30;90.50
58983;DHT22;44771;49.982;8.560;2023-09-07T09:39:05;24.60;91.50
58983;DHT22;44771;49.982;8.560;2023-09-07T09:44:09;24.50;89.40
58983;DHT22;44771;49.982;8.560;2023-09-07T09:49:12;24.60;90.30
58983;DHT22;44771;49.982;8.560;2023-09-07T09:54:16;24.90;89.30
58983;DHT22;44771;49.982;8.560;2023-09-07T09:59:19;25.20;90.00
58983;DHT22;44771;49.982;8.560;2023-09-07T10:04:21;25.40;89.60
58983;DHT22;44771;49.982;8.560;2023-09-07T10:09:23;25.40;87.10
58983;DHT22;44771;49.982;8.560;2023-09-07T10:14:39;25.60;83.80
58983;DHT22;44771;49.982;8.560;2023-09-07T10:19:41;25.80;83.80
58983;DHT22;44771;49.982;8.560;2023-09-07T10:24:42;25.90;85.20
58983;DHT22;44771;49.982;8.560;2023-09-07T10:29:50;26.30;80.40
58983;DHT22;44771;49.982;8.560;2023-09-07T10:34:59;26.30;82.50
58983;DHT22;44771;49.982;8.560;2023-09-07T10:40:01;26.50;79.10
58983;DHT22;44771;49.982;8.560;2023-09-07T10:45:10;26.70;78.10
58983;DHT22;44771;49.982;8.560;2023-09-07T10:50:12;26.80;76.00
58983;DHT22;44771;49.982;8.560;2023-09-07T10:55:14;26.80;78.50
58983;DHT22;44771;49.982;8.560;2023-09-07T11:00:18;26.80;76.60
58983;DHT22;44771;49.982;8.560;2023-09-07T11:05:19;26.80;77.10
58983;DHT22;44771;49.982;8.560;2023-09-07T11:10:21;26.80;75.90
58983;DHT22;44771;49.982;8.560;2023-09-07T11:15:24;27.10;77.20
58983;DHT22;44771;49.982;8.560;2023-09-07T11:20:26;27.00;75.00
58983;DHT22;44771;49.982;8.560;2023-09-07T11:25:34;27.10;72.10
58983;DHT22;44771;49.982;8.560;2023-09-07T11:30:48;27.10;74.00
58983;DHT22;44771;49.982;8.560;2023-09-07T11:35:50;27.20;72.00
58983;DHT22;44771;49.982;8.560;2023-09-07T11:40:52;27.30;73.70
58983;DHT22;44771;49.982;8.560;2023-09-07T11:45:55;27.50;71.60
58983;DHT22;44771;49.982;8.560;2023-09-07T11:50:57;27.50;73.30
58983;DHT22;44771;49.982;8.560;2023-09-07T11:56:01;27.70;72.90
58983;DHT22;44771;49.982;8.560;2023-09-07T12:01:04;27.80;72.40
58983;DHT22;44771;49.982;8.560;2023-09-07T12:06:06;27.90;68.70
58983;DHT22;44771;49.982;8.560;2023-09-07T12:11:08;27.80;72.50
58983;DHT22;44771;49.982;8.560;2023-09-07T12:16:11;28.10;71.40
58983;DHT22;44771;49.982;8.560;2023-09-07T12:21:15;28.10;69.30
58983;DHT22;44771;49.982;8.560;2023-09-07T12:26:19;28.00;66.00
58983;DHT22;44771;49.982;8.560;2023-09-07T12:31:27;28.10;66.20
58983;DHT22;44771;49.982;8.560;2023-09-07T12:36:29;28.20;70.30
58983;DHT22;44771;49.982;8.560;2023-09-07T12:41:31;28.20;67.80
58983;DHT22;44771;49.982;8.560;2023-09-07T12:46:34;28.30;66.60
58983;DHT22;44771;49.982;8.560;2023-09-07T12:51:36;28.40;67.00
58983;DHT22;44771;49.982;8.560;2023-09-07T12:56:38;28.40;65.90
58983;DHT22;44771;49.982;8.560;2023-09-07T13:01:41;28.30;65.60
58983;DHT22;44771;49.982;8.560;2023-09-07T13:06:43;28.40;64.30
58983;DHT22;44771;49.982;8.560;2023-09-07T13:11:45;28.50;65.30
58983;DHT22;44771;49.982;8.560;2023-09-07T13:16:48;28.60;68.20
58983;DHT22;44771;49.982;8.560;2023-09-07T13:21:50;28.60;64.90
58983;DHT22;44771;49.982;8.560;2023-09-07T13:26:52;28.40;64.80
58983;DHT22;44771;49.982;8.560;2023-09-07T13:31:55;28.50;64.20
58983;DHT22;44771;49.982;8.560;2023-09-07T13:36:57;28.70;68.00
58983;DHT22;44771;49.982;8.560;2023-09-07T13:41:58;28.80;65.10
58983;DHT22;44771;49.982;8.560;2023-09-07T13:47:02;28.70;64.00
58983;DHT22;44771;49.982;8.560;2023-09-07T13:52:06;28.60;64.60
58983;DHT22;44771;49.982;8.560;2023-09-07T13:57:08;28.80;64.60
58983;DHT22;44771;49.982;8.560;2023-09-07T14:02:12;28.80;63.80
58983;DHT22;44771;49.982;8.560;2023-09-07T14:07:15;28.80;63.50
58983;DHT22;44771;49.982;8.560;2023-09-07T14:12:19;28.60;67.90
58983;DHT22;44771;49.982;8.560;2023-09-07T14:17:36;28.70;62.60
58983;DHT22;44771;49.982;8.560;2023-09-07T14:22:38;28.60;65.50
58983;DHT22;44771;49.982;8.560;2023-09-07T14:27:40;28.80;63.40
58983;DHT22;44771;49.982;8.560;2023-09-07T14:32:43;28.90;65.70
58983;DHT22;44771;49.982;8.560;2023-09-07T14:37:45;28.90;63.90
58983;DHT22;44771;49.982;8.560;2023-09-07T14:42:47;29.00;64.30
58983;DHT22;44771;49.982;8.560;2023-09-07T14:47:50;28.90;64.30
58983;DHT22;44771;49.982;8.560;2023-09-07T14:52:52;29.00;61.50
58983;DHT22;44771;49.982;8.560;2023-09-07T14:57:54;29.00;61.70
58983;DHT22;44771;49.982;8.560;2023-09-07T15:02:58;28.70;61.90
58983;DHT22;44771;49.982;8.560;2023-09-07T15:08:02;28.70;59.80
58983;DHT22;44771;49.982;8.560;2023-09-07T15:13:04;28.60;61.40
58983;DHT22;44771;49.982;8.560;2023-09-07T15:18:08;28.50;60.80
58983;DHT22;44771;49.982;8.560;2023-09-07T15:23:11;28.40;61.30
58983;DHT22;44771;49.982;8.560;2023-09-07T15:28:12;28.20;62.10
58983;DHT22;44771;49.982;8.560;2023-09-07T15:33:16;28.10;63.50
58983;DHT22;44771;49.982;8.560;2023-09-07T15:38:18;27.80;63.00
58983;DHT22;44771;49.982;8.560;2023-09-07T15:43:19;27.80;61.70
58983;DHT22;44771;49.982;8.560;2023-09-07T15:48:22;27.90;61.50
58983;DHT22;44771;49.982;8.560;2023-09-07T15:53:24;27.90;61.70
58983;DHT22;44771;49.982;8.560;2023-09-07T15:58:26;27.80;61.80
58983;DHT22;44771;49.982;8.560;2023-09-07T16:03:29;27.60;64.30
58983;DHT22;44771;49.982;8.560;2023-09-07T16:08:32;27.40;63.70
58983;DHT22;44771;49.982;8.560;2023-09-07T16:13:34;27.40;65.10
58983;DHT22;44771;49.982;8.560;2023-09-07T16:18:38;27.30;64.60
58983;DHT22;44771;49.982;8.560;2023-09-07T16:23:41;27.30;63.80
58983;DHT22;44771;49.982;8.560;2023-09-07T16:28:43;27.30;63.80
58983;DHT22;44771;49.982;8.560;2023-09-07T16:33:46;27.10;67.20
58983;DHT22;44771;49.982;8.560;2023-09-07T16:38:51;26.70;69.20
58983;DHT22;44771;49.982;8.560;2023-09-07T16:43:53;26.50;67.80
58983;DHT22;44771;49.982;8.560;2023-09-07T16:48:56;26.40;70.40
58983;DHT22;44771;49.982;8.560;2023-09-07T16:53:58;26.20;69.80
58983;DHT22;44771;49.982;8.560;2023-09-07T16:59:00;25.90;71.70
58983;DHT22;44771;49.982;8.560;2023-09-07T17:04:06;25.70;72.30
58983;DHT22;44771;49.982;8.560;2023-09-07T17:09:08;25.30;72.60
58983;DHT22;44771;49.982;8.560;2023-09-07T17:14:10;25.30;72.00
58983;DHT22;44771;49.982;8.560;2023-09-07T17:19:13;25.30;72.20
58983;DHT22;44771;49.982;8.560;2023-09-07T17:24:14;25.10;74.40
58983;DHT22;44771;49.982;8.560;2023-09-07T17:29:17;24.80;74.30
58983;DHT22;44771;49.982;8.560;2023-09-07T17:34:23;24.60;74.10
58983;DHT22;44771;49.982;8.560;2023-09-07T17:39:25;24.50;74.70
58983;DHT22;44771;49.982;8.560;2023-09-07T17:44:26;24.40;74.60
58983;DHT22;44771;49.982;8.560;2023-09-07T17:49:29;24.10;75.30
58983;DHT22;44771;49.982;8.560;2023-09-07T17:54:31;23.70;76.50
58983;DHT22;44771;49.982;8.560;2023-09-07T17:59:33;23.20;79.10
58983;DHT22;44771;49.982;8.560;2023-09-07T18:04:36;22.70;81.30
58983;DHT22;44771;49.982;8.560;2023-09-07T18:09:38;22.20;83.30
58983;DHT22;44771;49.982;8.560;2023-09-07T18:14:40;21.90;85.00
58983;DHT22;44771;49.982;8.560;2023-09-07T18:19:43;21.50;86.90
58983;DHT22;44771;49.982;8.560;2023-09-07T18:24:45;21.20;88.90
58983;DHT22;44771;49.982;8.560;2023-09-07T18:29:47;20.80;90.50
58983;DHT22;44771;49.982;8.560;2023-09-07T18:34:50;20.50;92.30
58983;DHT22;44771;49.982;8.560;2023-09-07T18:39:51;20.20;92.80
58983;DHT22;44771;49.982;8.560;2023-09-07T18:44:55;19.90;93.70
58983;DHT22;44771;49.982;8.560;2023-09-07T18:49:58;19.60;94.40
58983;DHT22;44771;49.982;8.560;2023-09-07T18:55:01;19.50;95.00
58983;DHT22;44771;49.982;8.560;2023-09-07T19:00:03;19.20;95.40
58983;DHT22;44771;49.982;8.560;2023-09-07T19:05:07;19.00;96.40
58983;DHT22;44771;49.982;8.560;2023-09-07T19:10:09;18.70;97.60
58983;DHT22;44771;49.982;8.560;2023-09-07T19:15:11;18.50;99.00
58983;DHT22;44771;49.982;8.560;2023-09-07T19:20:15;18.40;99.90
58983;DHT22;44771;49.982;8.560;2023-09-07T19:25:17;18.20;99.90
58983;DHT22;44771;49.982;8.560;2023-09-07T19:30:19;18.00;99.90
58983;DHT22;44771;49.982;8.560;2023-09-07T19:35:22;17.80;99.90
58983;DHT22;44771;49.982;8.560;2023-09-07T19:40:24;17.60;99.90
58983;DHT22;44771;49.982;8.560;2023-09-07T19:45:26;17.50;99.90
58983;DHT22;44771;49.982;8.560;2023-09-07T19:50:29;17.40;99.90
58983;DHT22;44771;49.982;8.560;2023-09-07T19:55:31;17.10;99.90
58983;DHT22;44771;49.982;8.560;2023-09-07T20:00:32;16.90;99.90
58983;DHT22;44771;49.982;8.560;2023-09-07T20:05:36;16.90;99.90
58983;DHT22;44771;49.982;8.560;2023-09-07T20:10:37;16.80;99.90
58983;DHT22;44771;49.982;8.560;2023-09-07T20:15:39;16.80;99.90
58983;DHT22;44771;49.982;8.560;2023-09-07T20:20:42;16.50;99.90
58983;DHT22;44771;49.982;8.560;2023-09-07T20:25:44;16.40;99.90
58983;DHT22;44771;49.982;8.560;2023-09-07T20:30:46;16.30;99.90
58983;DHT22;44771;49.982;8.560;2023-09-07T20:35:49;16.40;99.90
58983;DHT22;44771;49.982;8.560;2023-09-07T20:40:51;16.40;99.90
58983;DHT22;44771;49.982;8.560;2023-09-07T20:45:53;16.20;99.90
58983;DHT22;44771;49.982;8.560;2023-09-07T20:50:57;16.00;99.90
58983;DHT22;44771;49.982;8.560;2023-09-07T20:55:58;16.00;99.90
58983;DHT22;44771;49.982;8.560;2023-09-07T21:01:00;15.90;99.90
58983;DHT22;44771;49.982;8.560;2023-09-07T21:06:03;15.80;99.90
58983;DHT22;44771;49.982;8.560;2023-09-07T21:11:05;15.60;99.90
58983;DHT22;44771;49.982;8.560;2023-09-07T21:16:07;15.50;99.90
58983;DHT22;44771;49.982;8.560;2023-09-07T21:21:10;15.40;99.90
58983;DHT22;44771;49.982;8.560;2023-09-07T21:26:12;15.20;99.90
58983;DHT22;44771;49.982;8.560;2023-09-07T21:31:14;15.20;99.90
58983;DHT22;44771;49.982;8.560;2023-09-07T21:36:17;15.30;99.90
58983;DHT22;44771;49.982;8.560;2023-09-07T21:41:19;15.20;99.90
58983;DHT22;44771;49.982;8.560;2023-09-07T21:46:21;15.20;99.90
58983;DHT22;44771;49.982;8.560;2023-09-07T21:58:26;15.00;99.90
58983;DHT22;44771;49.982;8.560;2023-09-07T22:03:17;15.00;99.90
58983;DHT22;44771;49.982;8.560;2023-09-07T22:08:20;15.00;99.90
58983;DHT22;44771;49.982;8.560;2023-09-07T22:19:07;14.90;99.90
58983;DHT22;44771;49.982;8.560;2023-09-07T22:24:12;14.80;99.90
58983;DHT22;44771;49.982;8.560;2023-09-07T22:29:14;14.70;99.90
58983;DHT22;44771;49.982;8.560;2023-09-07T22:34:18;14.60;99.90
58983;DHT22;44771;49.982;8.560;2023-09-07T22:39:22;14.50;99.90
58983;DHT22;44771;49.982;8.560;2023-09-07T22:44:23;14.50;99.90
58983;DHT22;44771;49.982;8.560;2023-09-07T22:49:25;14.40;99.90
58983;DHT22;44771;49.982;8.560;2023-09-07T22:54:29;14.20;99.90
58983;DHT22;44771;49.982;8.560;2023-09-07T22:59:30;14.20;99.90
58983;DHT22;44771;49.982;8.560;2023-09-07T23:04:32;14.10;99.90
58983;DHT22;44771;49.982;8.560;2023-09-07T23:09:35;14.10;99.90
58983;DHT22;44771;49.982;8.560;2023-09-07T23:14:37;14.10;99.90
58983;DHT22;44771;49.982;8.560;2023-09-07T23:19:39;14.10;99.90
58983;DHT22;44771;49.982;8.560;2023-09-07T23:24:42;14.10;99.90
58983;DHT22;44771;49.982;8.560;2023-09-07T23:29:44;13.90;99.90
58983;DHT22;44771;49.982;8.560;2023-09-07T23:34:46;13.70;99.90
58983;DHT22;44771;49.982;8.560;2023-09-07T23:39:49;13.80;99.90
58983;DHT22;44771;49.982;8.560;2023-09-07T23:44:51;13.90;99.90
58983;DHT22;44771;49.982;8.560;2023-09-07T23:49:53;14.00;99.90
58983;DHT22;44771;49.982;8.560;2023-09-07T23:54:56;14.10;99.90
58983;DHT22;44771;49.982;8.560;2023-09-07T23:59:57;14.10;99.90
